Terminal Aerodrome Forecast
Issued by NWS Jackson, MS

Home | Current Version | Previous Version | Text Only | Print | Product List | Glossary On
Versions: 1 2 3 4 5 6 7 8 9 10 11 12 13 14 15 16
284
FTUS44 KJAN 082326
TAFGLH
TAF
KGLH 082326Z 0900/0924 36006KT P6SM SCT100 BKN250
     FM091500 03009KT P6SM SKC=

USA.gov is the U.S. government's official web portal to all federal, state and local government web resources and services.